sensor_id;sensor_type;location;lat;lon;timestamp;temperature;humidity
58153;DHT22;43967;51.634;5.566;2023-09-18T00:01:57;23.70;73.80
58153;DHT22;43967;51.634;5.566;2023-09-18T00:07:18;23.70;73.80
58153;DHT22;43967;51.634;5.566;2023-09-18T00:12:40;23.70;73.70
58153;DHT22;43967;51.634;5.566;2023-09-18T00:18:01;23.70;73.60
58153;DHT22;43967;51.634;5.566;2023-09-18T00:23:22;23.70;73.60
58153;DHT22;43967;51.634;5.566;2023-09-18T00:28:44;23.70;73.50
58153;DHT22;43967;51.634;5.566;2023-09-18T00:34:05;23.70;73.50
58153;DHT22;43967;51.634;5.566;2023-09-18T00:39:26;23.70;73.40
58153;DHT22;43967;51.634;5.566;2023-09-18T00:44:48;23.70;73.40
58153;DHT22;43967;51.634;5.566;2023-09-18T00:50:12;23.70;73.40
58153;DHT22;43967;51.634;5.566;2023-09-18T00:55:34;23.70;73.30
58153;DHT22;43967;51.634;5.566;2023-09-18T01:00:57;23.70;73.20
58153;DHT22;43967;51.634;5.566;2023-09-18T01:06:19;23.70;73.20
58153;DHT22;43967;51.634;5.566;2023-09-18T01:17:20;23.70;73.10
58153;DHT22;43967;51.634;5.566;2023-09-18T01:22:42;23.70;73.10
58153;DHT22;43967;51.634;5.566;2023-09-18T01:28:04;23.70;73.00
58153;DHT22;43967;51.634;5.566;2023-09-18T01:33:26;23.70;73.00
58153;DHT22;43967;51.634;5.566;2023-09-18T01:38:49;23.70;72.90
58153;DHT22;43967;51.634;5.566;2023-09-18T01:44:11;23.70;72.90
58153;DHT22;43967;51.634;5.566;2023-09-18T01:49:36;23.70;72.90
58153;DHT22;43967;51.634;5.566;2023-09-18T01:54:58;23.70;72.80
58153;DHT22;43967;51.634;5.566;2023-09-18T02:00:19;23.70;72.80
58153;DHT22;43967;51.634;5.566;2023-09-18T02:05:41;23.60;72.80
58153;DHT22;43967;51.634;5.566;2023-09-18T02:11:02;23.70;72.70
58153;DHT22;43967;51.634;5.566;2023-09-18T02:16:23;23.70;72.80
58153;DHT22;43967;51.634;5.566;2023-09-18T02:21:44;23.70;72.80
58153;DHT22;43967;51.634;5.566;2023-09-18T02:27:06;23.60;72.70
58153;DHT22;43967;51.634;5.566;2023-09-18T02:32:27;23.60;72.70
58153;DHT22;43967;51.634;5.566;2023-09-18T02:37:48;23.70;72.70
58153;DHT22;43967;51.634;5.566;2023-09-18T02:43:10;23.60;72.60
58153;DHT22;43967;51.634;5.566;2023-09-18T02:48:31;23.70;72.70
58153;DHT22;43967;51.634;5.566;2023-09-18T02:53:52;23.70;72.60
58153;DHT22;43967;51.634;5.566;2023-09-18T02:59:14;23.70;72.60
58153;DHT22;43967;51.634;5.566;2023-09-18T03:04:35;23.60;72.60
58153;DHT22;43967;51.634;5.566;2023-09-18T03:09:56;23.70;72.60
58153;DHT22;43967;51.634;5.566;2023-09-18T03:15:17;23.70;72.50
58153;DHT22;43967;51.634;5.566;2023-09-18T03:20:39;23.60;72.50
58153;DHT22;43967;51.634;5.566;2023-09-18T03:26:00;23.60;72.50
58153;DHT22;43967;51.634;5.566;2023-09-18T03:31:21;23.60;72.50
58153;DHT22;43967;51.634;5.566;2023-09-18T03:36:43;23.60;72.50
58153;DHT22;43967;51.634;5.566;2023-09-18T03:42:04;23.60;72.50
58153;DHT22;43967;51.634;5.566;2023-09-18T03:47:25;23.60;72.50
58153;DHT22;43967;51.634;5.566;2023-09-18T03:52:47;23.60;72.50
58153;DHT22;43967;51.634;5.566;2023-09-18T03:58:08;23.60;72.60
58153;DHT22;43967;51.634;5.566;2023-09-18T04:03:29;23.60;72.50
58153;DHT22;43967;51.634;5.566;2023-09-18T04:08:50;23.60;72.60
58153;DHT22;43967;51.634;5.566;2023-09-18T04:14:12;23.60;72.50
58153;DHT22;43967;51.634;5.566;2023-09-18T04:19:33;23.60;72.50
58153;DHT22;43967;51.634;5.566;2023-09-18T04:24:54;23.60;72.50
58153;DHT22;43967;51.634;5.566;2023-09-18T04:30:16;23.60;72.50
58153;DHT22;43967;51.634;5.566;2023-09-18T04:35:37;23.60;72.50
58153;DHT22;43967;51.634;5.566;2023-09-18T04:40:59;23.60;72.50
58153;DHT22;43967;51.634;5.566;2023-09-18T04:46:21;23.60;72.50
58153;DHT22;43967;51.634;5.566;2023-09-18T04:51:42;23.60;72.50
58153;DHT22;43967;51.634;5.566;2023-09-18T04:57:03;23.60;72.50
58153;DHT22;43967;51.634;5.566;2023-09-18T05:02:25;23.60;72.60
58153;DHT22;43967;51.634;5.566;2023-09-18T05:07:46;23.60;72.50
58153;DHT22;43967;51.634;5.566;2023-09-18T05:13:07;23.60;72.50
58153;DHT22;43967;51.634;5.566;2023-09-18T05:18:28;23.60;72.50
58153;DHT22;43967;51.634;5.566;2023-09-18T05:23:50;23.60;72.50
58153;DHT22;43967;51.634;5.566;2023-09-18T05:29:11;23.60;72.40
58153;DHT22;43967;51.634;5.566;2023-09-18T05:34:33;23.60;72.50
58153;DHT22;43967;51.634;5.566;2023-09-18T05:39:54;23.60;72.40
58153;DHT22;43967;51.634;5.566;2023-09-18T05:45:15;23.60;72.40
58153;DHT22;43967;51.634;5.566;2023-09-18T05:50:37;23.60;72.50
58153;DHT22;43967;51.634;5.566;2023-09-18T05:55:59;23.60;72.40
58153;DHT22;43967;51.634;5.566;2023-09-18T06:01:20;23.60;72.40
58153;DHT22;43967;51.634;5.566;2023-09-18T06:06:41;23.60;72.40
58153;DHT22;43967;51.634;5.566;2023-09-18T06:12:03;23.50;72.40
58153;DHT22;43967;51.634;5.566;2023-09-18T06:17:24;23.60;72.40
58153;DHT22;43967;51.634;5.566;2023-09-18T06:22:46;23.60;72.40
58153;DHT22;43967;51.634;5.566;2023-09-18T06:28:07;23.60;72.50
58153;DHT22;43967;51.634;5.566;2023-09-18T06:33:28;23.60;72.50
58153;DHT22;43967;51.634;5.566;2023-09-18T06:38:49;23.60;73.10
58153;DHT22;43967;51.634;5.566;2023-09-18T06:44:11;23.60;73.20
58153;DHT22;43967;51.634;5.566;2023-09-18T06:49:32;23.60;73.20
58153;DHT22;43967;51.634;5.566;2023-09-18T06:54:54;23.60;73.40
58153;DHT22;43967;51.634;5.566;2023-09-18T07:00:15;23.60;73.80
58153;DHT22;43967;51.634;5.566;2023-09-18T07:05:37;23.60;74.10
58153;DHT22;43967;51.634;5.566;2023-09-18T07:10:58;23.60;74.00
58153;DHT22;43967;51.634;5.566;2023-09-18T07:16:20;23.60;74.00
58153;DHT22;43967;51.634;5.566;2023-09-18T07:21:41;23.60;74.00
58153;DHT22;43967;51.634;5.566;2023-09-18T07:27:02;23.60;74.00
58153;DHT22;43967;51.634;5.566;2023-09-18T07:32:25;23.60;73.90
58153;DHT22;43967;51.634;5.566;2023-09-18T07:37:46;23.70;74.60
58153;DHT22;43967;51.634;5.566;2023-09-18T07:43:07;23.70;74.10
58153;DHT22;43967;51.634;5.566;2023-09-18T07:48:28;23.60;74.00
58153;DHT22;43967;51.634;5.566;2023-09-18T07:53:50;23.70;74.10
58153;DHT22;43967;51.634;5.566;2023-09-18T07:59:11;23.70;76.40
58153;DHT22;43967;51.634;5.566;2023-09-18T08:04:32;23.70;77.60
58153;DHT22;43967;51.634;5.566;2023-09-18T08:09:54;23.70;78.20
58153;DHT22;43967;51.634;5.566;2023-09-18T08:15:15;23.60;78.50
58153;DHT22;43967;51.634;5.566;2023-09-18T08:20:41;23.60;78.20
58153;DHT22;43967;51.634;5.566;2023-09-18T08:26:02;23.60;77.90
58153;DHT22;43967;51.634;5.566;2023-09-18T08:31:23;23.60;77.50
58153;DHT22;43967;51.634;5.566;2023-09-18T08:36:45;23.60;77.30
58153;DHT22;43967;51.634;5.566;2023-09-18T08:42:07;23.60;76.90
58153;DHT22;43967;51.634;5.566;2023-09-18T08:47:30;23.70;76.40
58153;DHT22;43967;51.634;5.566;2023-09-18T08:52:52;23.60;75.80
58153;DHT22;43967;51.634;5.566;2023-09-18T08:58:13;23.70;75.30
58153;DHT22;43967;51.634;5.566;2023-09-18T09:03:35;23.60;74.70
58153;DHT22;43967;51.634;5.566;2023-09-18T09:08:57;23.60;74.40
58153;DHT22;43967;51.634;5.566;2023-09-18T09:14:18;23.60;74.00
58153;DHT22;43967;51.634;5.566;2023-09-18T09:19:39;23.60;73.80
58153;DHT22;43967;51.634;5.566;2023-09-18T09:25:00;23.60;74.00
58153;DHT22;43967;51.634;5.566;2023-09-18T09:30:26;23.70;74.40
58153;DHT22;43967;51.634;5.566;2023-09-18T09:35:48;23.80;74.40
58153;DHT22;43967;51.634;5.566;2023-09-18T09:41:13;23.80;74.30
58153;DHT22;43967;51.634;5.566;2023-09-18T09:46:35;23.80;74.20
58153;DHT22;43967;51.634;5.566;2023-09-18T09:51:59;23.80;74.20
58153;DHT22;43967;51.634;5.566;2023-09-18T09:57:20;23.80;74.10
58153;DHT22;43967;51.634;5.566;2023-09-18T10:02:41;23.80;74.00
58153;DHT22;43967;51.634;5.566;2023-09-18T10:08:18;23.90;74.00
58153;DHT22;43967;51.634;5.566;2023-09-18T10:13:47;23.90;74.10
58153;DHT22;43967;51.634;5.566;2023-09-18T10:19:25;23.90;73.80
58153;DHT22;43967;51.634;5.566;2023-09-18T10:24:50;23.80;73.70
58153;DHT22;43967;51.634;5.566;2023-09-18T10:30:19;23.90;73.60
58153;DHT22;43967;51.634;5.566;2023-09-18T10:35:41;23.80;74.20
58153;DHT22;43967;51.634;5.566;2023-09-18T10:41:03;23.90;73.50
58153;DHT22;43967;51.634;5.566;2023-09-18T10:46:27;23.90;73.40
58153;DHT22;43967;51.634;5.566;2023-09-18T10:51:48;23.90;73.30
58153;DHT22;43967;51.634;5.566;2023-09-18T10:57:14;23.90;73.30
58153;DHT22;43967;51.634;5.566;2023-09-18T11:02:35;23.90;73.30
58153;DHT22;43967;51.634;5.566;2023-09-18T11:13:52;23.90;73.20
58153;DHT22;43967;51.634;5.566;2023-09-18T11:19:17;23.90;73.10
58153;DHT22;43967;51.634;5.566;2023-09-18T11:24:38;23.90;73.10
58153;DHT22;43967;51.634;5.566;2023-09-18T11:30:00;24.00;73.10
58153;DHT22;43967;51.634;5.566;2023-09-18T11:35:22;24.00;73.10
58153;DHT22;43967;51.634;5.566;2023-09-18T11:40:43;24.00;73.00
58153;DHT22;43967;51.634;5.566;2023-09-18T11:46:04;24.00;73.60
58153;DHT22;43967;51.634;5.566;2023-09-18T11:51:26;24.00;72.90
58153;DHT22;43967;51.634;5.566;2023-09-18T11:56:48;24.00;72.90
58153;DHT22;43967;51.634;5.566;2023-09-18T12:02:10;24.00;72.90
58153;DHT22;43967;51.634;5.566;2023-09-18T12:07:31;24.00;72.80
58153;DHT22;43967;51.634;5.566;2023-09-18T12:12:53;24.00;72.80
58153;DHT22;43967;51.634;5.566;2023-09-18T12:18:15;24.00;72.90
58153;DHT22;43967;51.634;5.566;2023-09-18T12:23:37;24.00;72.80
58153;DHT22;43967;51.634;5.566;2023-09-18T12:28:59;24.00;72.80
58153;DHT22;43967;51.634;5.566;2023-09-18T12:34:21;24.00;72.80
58153;DHT22;43967;51.634;5.566;2023-09-18T12:39:43;24.00;72.70
58153;DHT22;43967;51.634;5.566;2023-09-18T12:45:04;24.00;72.70
58153;DHT22;43967;51.634;5.566;2023-09-18T12:50:26;24.00;72.70
58153;DHT22;43967;51.634;5.566;2023-09-18T12:55:48;24.00;72.70
58153;DHT22;43967;51.634;5.566;2023-09-18T13:01:10;24.00;72.70
58153;DHT22;43967;51.634;5.566;2023-09-18T13:06:32;24.00;72.60
58153;DHT22;43967;51.634;5.566;2023-09-18T13:11:55;24.00;72.50
58153;DHT22;43967;51.634;5.566;2023-09-18T13:17:16;24.00;72.50
58153;DHT22;43967;51.634;5.566;2023-09-18T13:22:39;24.00;72.50
58153;DHT22;43967;51.634;5.566;2023-09-18T13:28:02;24.00;72.40
58153;DHT22;43967;51.634;5.566;2023-09-18T13:33:23;24.00;72.40
58153;DHT22;43967;51.634;5.566;2023-09-18T13:38:44;24.00;72.30
58153;DHT22;43967;51.634;5.566;2023-09-18T13:44:06;24.00;72.30
58153;DHT22;43967;51.634;5.566;2023-09-18T13:49:27;24.10;72.30
58153;DHT22;43967;51.634;5.566;2023-09-18T13:54:48;24.00;72.30
58153;DHT22;43967;51.634;5.566;2023-09-18T14:00:10;24.00;72.30
58153;DHT22;43967;51.634;5.566;2023-09-18T14:05:31;24.10;72.30
58153;DHT22;43967;51.634;5.566;2023-09-18T14:10:52;24.10;72.20
58153;DHT22;43967;51.634;5.566;2023-09-18T14:16:14;24.10;72.20
58153;DHT22;43967;51.634;5.566;2023-09-18T14:21:35;24.10;72.20
58153;DHT22;43967;51.634;5.566;2023-09-18T14:26:56;24.10;72.10
58153;DHT22;43967;51.634;5.566;2023-09-18T14:32:18;24.10;72.10
58153;DHT22;43967;51.634;5.566;2023-09-18T14:37:39;24.10;72.10
58153;DHT22;43967;51.634;5.566;2023-09-18T14:43:00;24.10;72.00
58153;DHT22;43967;51.634;5.566;2023-09-18T14:48:22;24.10;72.00
58153;DHT22;43967;51.634;5.566;2023-09-18T14:53:43;24.10;71.90
58153;DHT22;43967;51.634;5.566;2023-09-18T14:59:06;24.10;71.90
58153;DHT22;43967;51.634;5.566;2023-09-18T15:04:27;24.10;71.80
58153;DHT22;43967;51.634;5.566;2023-09-18T15:09:48;24.10;71.80
58153;DHT22;43967;51.634;5.566;2023-09-18T15:15:10;24.10;71.70
58153;DHT22;43967;51.634;5.566;2023-09-18T15:20:31;24.10;71.70
58153;DHT22;43967;51.634;5.566;2023-09-18T15:25:53;24.10;71.70
58153;DHT22;43967;51.634;5.566;2023-09-18T15:31:14;24.10;71.60
58153;DHT22;43967;51.634;5.566;2023-09-18T15:36:35;24.10;71.60
58153;DHT22;43967;51.634;5.566;2023-09-18T15:41:56;24.10;71.80
58153;DHT22;43967;51.634;5.566;2023-09-18T15:47:18;24.10;71.90
58153;DHT22;43967;51.634;5.566;2023-09-18T15:52:39;24.10;72.00
58153;DHT22;43967;51.634;5.566;2023-09-18T15:58:00;24.10;72.00
58153;DHT22;43967;51.634;5.566;2023-09-18T16:03:22;24.00;71.90
58153;DHT22;43967;51.634;5.566;2023-09-18T16:08:44;24.00;71.80
58153;DHT22;43967;51.634;5.566;2023-09-18T16:14:05;24.00;71.70
58153;DHT22;43967;51.634;5.566;2023-09-18T16:19:27;24.00;71.70
58153;DHT22;43967;51.634;5.566;2023-09-18T16:24:48;23.90;71.50
58153;DHT22;43967;51.634;5.566;2023-09-18T16:30:10;23.90;71.50
58153;DHT22;43967;51.634;5.566;2023-09-18T16:35:31;23.90;71.50
58153;DHT22;43967;51.634;5.566;2023-09-18T16:40:52;23.90;71.40
58153;DHT22;43967;51.634;5.566;2023-09-18T16:46:14;23.90;71.30
58153;DHT22;43967;51.634;5.566;2023-09-18T16:51:35;23.80;70.70
58153;DHT22;43967;51.634;5.566;2023-09-18T16:56:57;23.70;70.40
58153;DHT22;43967;51.634;5.566;2023-09-18T17:02:18;23.70;70.20
58153;DHT22;43967;51.634;5.566;2023-09-18T17:07:40;23.60;69.90
58153;DHT22;43967;51.634;5.566;2023-09-18T17:13:01;23.60;69.70
58153;DHT22;43967;51.634;5.566;2023-09-18T17:18:22;23.60;69.50
58153;DHT22;43967;51.634;5.566;2023-09-18T17:23:44;23.50;69.50
58153;DHT22;43967;51.634;5.566;2023-09-18T17:29:05;23.50;69.70
58153;DHT22;43967;51.634;5.566;2023-09-18T17:34:26;23.50;69.60
58153;DHT22;43967;51.634;5.566;2023-09-18T17:39:48;23.50;69.50
58153;DHT22;43967;51.634;5.566;2023-09-18T17:45:09;23.50;69.70
58153;DHT22;43967;51.634;5.566;2023-09-18T17:50:30;23.60;69.90
58153;DHT22;43967;51.634;5.566;2023-09-18T17:55:52;23.70;70.40
58153;DHT22;43967;51.634;5.566;2023-09-18T18:01:13;23.70;70.60
58153;DHT22;43967;51.634;5.566;2023-09-18T18:06:34;23.80;70.80
58153;DHT22;43967;51.634;5.566;2023-09-18T18:11:56;23.80;70.90
58153;DHT22;43967;51.634;5.566;2023-09-18T18:17:17;23.80;71.00
58153;DHT22;43967;51.634;5.566;2023-09-18T18:22:39;23.80;71.00
58153;DHT22;43967;51.634;5.566;2023-09-18T18:28:00;23.80;71.00
58153;DHT22;43967;51.634;5.566;2023-09-18T18:33:21;23.90;71.00
58153;DHT22;43967;51.634;5.566;2023-09-18T18:38:43;23.90;71.00
58153;DHT22;43967;51.634;5.566;2023-09-18T18:44:04;23.90;71.00
58153;DHT22;43967;51.634;5.566;2023-09-18T18:49:25;23.90;71.10
58153;DHT22;43967;51.634;5.566;2023-09-18T18:54:47;23.90;71.20
58153;DHT22;43967;51.634;5.566;2023-09-18T19:00:08;23.90;71.10
58153;DHT22;43967;51.634;5.566;2023-09-18T19:05:30;24.00;71.20
58153;DHT22;43967;51.634;5.566;2023-09-18T19:10:51;23.90;71.20
58153;DHT22;43967;51.634;5.566;2023-09-18T19:16:13;23.90;71.20
58153;DHT22;43967;51.634;5.566;2023-09-18T19:21:34;24.00;71.40
58153;DHT22;43967;51.634;5.566;2023-09-18T19:26:55;23.90;71.30
58153;DHT22;43967;51.634;5.566;2023-09-18T19:32:18;23.90;71.70
58153;DHT22;43967;51.634;5.566;2023-09-18T19:37:39;23.90;71.40
58153;DHT22;43967;51.634;5.566;2023-09-18T19:43:00;23.90;71.40
58153;DHT22;43967;51.634;5.566;2023-09-18T19:48:21;24.00;71.50
58153;DHT22;43967;51.634;5.566;2023-09-18T19:53:43;24.00;71.60
58153;DHT22;43967;51.634;5.566;2023-09-18T19:59:04;24.00;71.50
58153;DHT22;43967;51.634;5.566;2023-09-18T20:04:25;24.00;71.50
58153;DHT22;43967;51.634;5.566;2023-09-18T20:09:46;24.00;71.40
58153;DHT22;43967;51.634;5.566;2023-09-18T20:15:08;24.00;71.50
58153;DHT22;43967;51.634;5.566;2023-09-18T20:20:30;24.00;71.50
58153;DHT22;43967;51.634;5.566;2023-09-18T20:25:51;24.00;71.50
58153;DHT22;43967;51.634;5.566;2023-09-18T20:31:12;23.90;71.50
58153;DHT22;43967;51.634;5.566;2023-09-18T20:36:33;23.90;71.50
58153;DHT22;43967;51.634;5.566;2023-09-18T20:41:55;23.80;71.50
58153;DHT22;43967;51.634;5.566;2023-09-18T20:47:16;23.80;71.40
58153;DHT22;43967;51.634;5.566;2023-09-18T20:52:37;23.80;71.50
58153;DHT22;43967;51.634;5.566;2023-09-18T20:57:58;23.80;72.00
58153;DHT22;43967;51.634;5.566;2023-09-18T21:03:20;23.80;71.30
58153;DHT22;43967;51.634;5.566;2023-09-18T21:08:41;23.80;71.10
58153;DHT22;43967;51.634;5.566;2023-09-18T21:14:02;23.80;71.00
58153;DHT22;43967;51.634;5.566;2023-09-18T21:19:24;23.80;71.10
58153;DHT22;43967;51.634;5.566;2023-09-18T21:24:45;23.80;71.00
58153;DHT22;43967;51.634;5.566;2023-09-18T21:30:07;23.80;70.90
58153;DHT22;43967;51.634;5.566;2023-09-18T21:35:28;23.80;70.80
58153;DHT22;43967;51.634;5.566;2023-09-18T21:40:49;23.80;70.80
58153;DHT22;43967;51.634;5.566;2023-09-18T21:46:14;23.70;70.60
58153;DHT22;43967;51.634;5.566;2023-09-18T21:51:35;23.70;70.60
58153;DHT22;43967;51.634;5.566;2023-09-18T21:56:57;23.80;70.60
58153;DHT22;43967;51.634;5.566;2023-09-18T22:02:18;23.70;70.50
58153;DHT22;43967;51.634;5.566;2023-09-18T22:07:40;23.70;70.50
58153;DHT22;43967;51.634;5.566;2023-09-18T22:13:01;23.70;70.40
58153;DHT22;43967;51.634;5.566;2023-09-18T22:18:22;23.70;70.40
58153;DHT22;43967;51.634;5.566;2023-09-18T22:23:44;23.70;70.40
58153;DHT22;43967;51.634;5.566;2023-09-18T22:29:05;23.70;70.40
58153;DHT22;43967;51.634;5.566;2023-09-18T22:34:26;23.70;70.40
58153;DHT22;43967;51.634;5.566;2023-09-18T22:57:13;23.70;70.20
58153;DHT22;43967;51.634;5.566;2023-09-18T23:02:36;23.60;70.10
58153;DHT22;43967;51.634;5.566;2023-09-18T23:08:00;23.60;70.10
58153;DHT22;43967;51.634;5.566;2023-09-18T23:13:21;23.60;70.00
58153;DHT22;43967;51.634;5.566;2023-09-18T23:18:42;23.60;70.00
58153;DHT22;43967;51.634;5.566;2023-09-18T23:24:04;23.60;70.10
58153;DHT22;43967;51.634;5.566;2023-09-18T23:29:28;23.60;70.00
58153;DHT22;43967;51.634;5.566;2023-09-18T23:34:49;23.60;70.00
58153;DHT22;43967;51.634;5.566;2023-09-18T23:40:11;23.60;70.00
58153;DHT22;43967;51.634;5.566;2023-09-18T23:45:37;23.60;69.90
58153;DHT22;43967;51.634;5.566;2023-09-18T23:50:58;23.60;69.90
58153;DHT22;43967;51.634;5.566;2023-09-18T23:56:19;23.60;69.70
